sensor_id;sensor_type;location;lat;lon;timestamp;P1;durP1;ratioP1;P2;durP2;ratioP2
12884;SDS011;6510;51.362;7.370;2023-10-13T00:01:21;0.00;;;0.00;;
12884;SDS011;6510;51.362;7.370;2023-10-13T00:03:48;0.10;;;0.10;;
12884;SDS011;6510;51.362;7.370;2023-10-13T00:06:14;0.00;;;0.00;;
12884;SDS011;6510;51.362;7.370;2023-10-13T00:08:40;0.10;;;0.10;;
12884;SDS011;6510;51.362;7.370;2023-10-13T00:11:10;0.10;;;0.10;;
12884;SDS011;6510;51.362;7.370;2023-10-13T00:13:37;0.10;;;0.10;;
12884;SDS011;6510;51.362;7.370;2023-10-13T00:16:08;0.10;;;0.10;;
12884;SDS011;6510;51.362;7.370;2023-10-13T00:18:42;0.10;;;0.10;;
12884;SDS011;6510;51.362;7.370;2023-10-13T00:21:09;0.10;;;0.10;;
12884;SDS011;6510;51.362;7.370;2023-10-13T00:23:39;0.07;;;0.07;;
12884;SDS011;6510;51.362;7.370;2023-10-13T00:26:14;0.03;;;0.03;;
12884;SDS011;6510;51.362;7.370;2023-10-13T00:28:43;0.10;;;0.10;;
12884;SDS011;6510;51.362;7.370;2023-10-13T00:31:11;0.00;;;0.00;;
12884;SDS011;6510;51.362;7.370;2023-10-13T00:33:39;0.10;;;0.10;;
12884;SDS011;6510;51.362;7.370;2023-10-13T00:36:09;0.10;;;0.10;;
12884;SDS011;6510;51.362;7.370;2023-10-13T00:38:44;0.00;;;0.00;;
12884;SDS011;6510;51.362;7.370;2023-10-13T00:41:14;0.00;;;0.00;;
12884;SDS011;6510;51.362;7.370;2023-10-13T00:43:44;0.03;;;0.03;;
12884;SDS011;6510;51.362;7.370;2023-10-13T00:46:29;0.10;;;0.10;;
12884;SDS011;6510;51.362;7.370;2023-10-13T00:48:59;0.10;;;0.10;;
12884;SDS011;6510;51.362;7.370;2023-10-13T00:51:26;0.00;;;0.00;;
12884;SDS011;6510;51.362;7.370;2023-10-13T00:54:06;0.00;;;0.00;;
12884;SDS011;6510;51.362;7.370;2023-10-13T00:56:37;0.00;;;0.00;;
12884;SDS011;6510;51.362;7.370;2023-10-13T00:59:08;0.00;;;0.00;;
12884;SDS011;6510;51.362;7.370;2023-10-13T01:01:35;0.00;;;0.00;;
12884;SDS011;6510;51.362;7.370;2023-10-13T01:04:01;0.00;;;0.00;;
12884;SDS011;6510;51.362;7.370;2023-10-13T01:06:30;0.10;;;0.10;;
12884;SDS011;6510;51.362;7.370;2023-10-13T01:08:57;0.00;;;0.00;;
12884;SDS011;6510;51.362;7.370;2023-10-13T01:11:42;0.00;;;0.00;;
12884;SDS011;6510;51.362;7.370;2023-10-13T01:14:09;0.00;;;0.00;;
12884;SDS011;6510;51.362;7.370;2023-10-13T01:16:36;0.00;;;0.00;;
12884;SDS011;6510;51.362;7.370;2023-10-13T01:19:05;0.00;;;0.00;;
12884;SDS011;6510;51.362;7.370;2023-10-13T01:21:31;0.00;;;0.00;;
12884;SDS011;6510;51.362;7.370;2023-10-13T01:23:58;0.00;;;0.00;;
12884;SDS011;6510;51.362;7.370;2023-10-13T01:26:25;0.10;;;0.10;;
12884;SDS011;6510;51.362;7.370;2023-10-13T01:28:51;0.00;;;0.00;;
12884;SDS011;6510;51.362;7.370;2023-10-13T01:31:21;0.03;;;0.03;;
12884;SDS011;6510;51.362;7.370;2023-10-13T01:33:52;0.10;;;0.10;;
12884;SDS011;6510;51.362;7.370;2023-10-13T01:36:20;0.00;;;0.00;;
12884;SDS011;6510;51.362;7.370;2023-10-13T01:38:47;0.10;;;0.10;;
12884;SDS011;6510;51.362;7.370;2023-10-13T01:41:13;0.00;;;0.00;;
12884;SDS011;6510;51.362;7.370;2023-10-13T01:43:39;0.00;;;0.00;;
12884;SDS011;6510;51.362;7.370;2023-10-13T01:46:05;0.00;;;0.00;;
12884;SDS011;6510;51.362;7.370;2023-10-13T01:48:31;0.00;;;0.00;;
12884;SDS011;6510;51.362;7.370;2023-10-13T01:51:03;0.00;;;0.00;;
12884;SDS011;6510;51.362;7.370;2023-10-13T01:53:35;0.10;;;0.10;;
12884;SDS011;6510;51.362;7.370;2023-10-13T01:56:04;0.00;;;0.00;;
12884;SDS011;6510;51.362;7.370;2023-10-13T01:58:35;0.00;;;0.00;;
12884;SDS011;6510;51.362;7.370;2023-10-13T02:01:07;0.00;;;0.00;;
12884;SDS011;6510;51.362;7.370;2023-10-13T02:03:36;0.00;;;0.00;;
12884;SDS011;6510;51.362;7.370;2023-10-13T02:06:11;0.00;;;0.00;;
12884;SDS011;6510;51.362;7.370;2023-10-13T02:08:42;0.00;;;0.00;;
12884;SDS011;6510;51.362;7.370;2023-10-13T02:11:09;0.00;;;0.00;;
12884;SDS011;6510;51.362;7.370;2023-10-13T02:13:35;0.00;;;0.00;;
12884;SDS011;6510;51.362;7.370;2023-10-13T02:16:13;0.00;;;0.00;;
12884;SDS011;6510;51.362;7.370;2023-10-13T02:18:43;0.00;;;0.00;;
12884;SDS011;6510;51.362;7.370;2023-10-13T02:21:09;0.00;;;0.00;;
12884;SDS011;6510;51.362;7.370;2023-10-13T02:23:40;0.00;;;0.00;;
12884;SDS011;6510;51.362;7.370;2023-10-13T02:26:13;0.00;;;0.00;;
12884;SDS011;6510;51.362;7.370;2023-10-13T02:28:55;0.03;;;0.03;;
12884;SDS011;6510;51.362;7.370;2023-10-13T02:31:27;0.00;;;0.00;;
12884;SDS011;6510;51.362;7.370;2023-10-13T02:33:52;0.00;;;0.00;;
12884;SDS011;6510;51.362;7.370;2023-10-13T02:36:18;0.10;;;0.10;;
12884;SDS011;6510;51.362;7.370;2023-10-13T02:38:48;0.00;;;0.00;;
12884;SDS011;6510;51.362;7.370;2023-10-13T02:41:16;0.00;;;0.00;;
12884;SDS011;6510;51.362;7.370;2023-10-13T02:43:53;0.00;;;0.00;;
12884;SDS011;6510;51.362;7.370;2023-10-13T02:46:20;0.00;;;0.00;;
12884;SDS011;6510;51.362;7.370;2023-10-13T02:48:47;0.10;;;0.10;;
12884;SDS011;6510;51.362;7.370;2023-10-13T02:51:19;0.10;;;0.10;;
12884;SDS011;6510;51.362;7.370;2023-10-13T02:54:00;0.10;;;0.10;;
12884;SDS011;6510;51.362;7.370;2023-10-13T02:56:34;0.00;;;0.00;;
12884;SDS011;6510;51.362;7.370;2023-10-13T02:59:01;0.00;;;0.00;;
12884;SDS011;6510;51.362;7.370;2023-10-13T03:01:33;0.07;;;0.07;;
12884;SDS011;6510;51.362;7.370;2023-10-13T03:04:00;0.00;;;0.00;;
12884;SDS011;6510;51.362;7.370;2023-10-13T03:06:28;0.10;;;0.10;;
12884;SDS011;6510;51.362;7.370;2023-10-13T03:11:49;0.10;;;0.10;;
12884;SDS011;6510;51.362;7.370;2023-10-13T03:14:16;0.00;;;0.00;;
12884;SDS011;6510;51.362;7.370;2023-10-13T03:16:52;0.10;;;0.10;;
12884;SDS011;6510;51.362;7.370;2023-10-13T03:19:19;0.00;;;0.00;;
12884;SDS011;6510;51.362;7.370;2023-10-13T03:21:45;0.00;;;0.00;;
12884;SDS011;6510;51.362;7.370;2023-10-13T03:24:20;0.00;;;0.00;;
12884;SDS011;6510;51.362;7.370;2023-10-13T03:26:59;0.00;;;0.00;;
12884;SDS011;6510;51.362;7.370;2023-10-13T03:29:33;0.00;;;0.00;;
12884;SDS011;6510;51.362;7.370;2023-10-13T03:32:07;0.00;;;0.00;;
12884;SDS011;6510;51.362;7.370;2023-10-13T03:34:37;0.00;;;0.00;;
12884;SDS011;6510;51.362;7.370;2023-10-13T03:37:15;0.00;;;0.00;;
12884;SDS011;6510;51.362;7.370;2023-10-13T03:40:01;0.00;;;0.00;;
12884;SDS011;6510;51.362;7.370;2023-10-13T03:42:31;0.00;;;0.00;;
12884;SDS011;6510;51.362;7.370;2023-10-13T03:44:57;0.00;;;0.00;;
12884;SDS011;6510;51.362;7.370;2023-10-13T03:47:23;0.10;;;0.10;;
12884;SDS011;6510;51.362;7.370;2023-10-13T03:49:54;0.00;;;0.00;;
12884;SDS011;6510;51.362;7.370;2023-10-13T03:52:40;0.00;;;0.00;;
12884;SDS011;6510;51.362;7.370;2023-10-13T03:55:06;0.00;;;0.00;;
12884;SDS011;6510;51.362;7.370;2023-10-13T03:57:32;0.00;;;0.00;;
12884;SDS011;6510;51.362;7.370;2023-10-13T04:00:05;0.00;;;0.00;;
12884;SDS011;6510;51.362;7.370;2023-10-13T04:02:34;0.10;;;0.10;;
12884;SDS011;6510;51.362;7.370;2023-10-13T04:05:01;0.10;;;0.10;;
12884;SDS011;6510;51.362;7.370;2023-10-13T04:07:34;0.00;;;0.00;;
12884;SDS011;6510;51.362;7.370;2023-10-13T04:10:00;0.00;;;0.00;;
12884;SDS011;6510;51.362;7.370;2023-10-13T04:12:44;0.10;;;0.10;;
12884;SDS011;6510;51.362;7.370;2023-10-13T04:15:28;0.00;;;0.00;;
12884;SDS011;6510;51.362;7.370;2023-10-13T04:18:06;0.00;;;0.00;;
12884;SDS011;6510;51.362;7.370;2023-10-13T04:20:43;0.00;;;0.00;;
12884;SDS011;6510;51.362;7.370;2023-10-13T04:23:11;0.00;;;0.00;;
12884;SDS011;6510;51.362;7.370;2023-10-13T04:25:42;0.00;;;0.00;;
12884;SDS011;6510;51.362;7.370;2023-10-13T04:28:11;0.00;;;0.00;;
12884;SDS011;6510;51.362;7.370;2023-10-13T04:30:59;0.00;;;0.00;;
12884;SDS011;6510;51.362;7.370;2023-10-13T04:33:37;0.00;;;0.00;;
12884;SDS011;6510;51.362;7.370;2023-10-13T04:36:21;0.00;;;0.00;;
12884;SDS011;6510;51.362;7.370;2023-10-13T04:38:48;0.00;;;0.00;;
12884;SDS011;6510;51.362;7.370;2023-10-13T04:41:17;0.00;;;0.00;;
12884;SDS011;6510;51.362;7.370;2023-10-13T04:43:47;0.10;;;0.10;;
12884;SDS011;6510;51.362;7.370;2023-10-13T04:46:29;0.00;;;0.00;;
12884;SDS011;6510;51.362;7.370;2023-10-13T04:49:19;0.00;;;0.00;;
12884;SDS011;6510;51.362;7.370;2023-10-13T04:52:03;0.00;;;0.00;;
12884;SDS011;6510;51.362;7.370;2023-10-13T04:54:36;0.00;;;0.00;;
12884;SDS011;6510;51.362;7.370;2023-10-13T04:57:16;0.00;;;0.00;;
12884;SDS011;6510;51.362;7.370;2023-10-13T05:00:12;0.00;;;0.00;;
12884;SDS011;6510;51.362;7.370;2023-10-13T05:02:45;0.10;;;0.10;;
12884;SDS011;6510;51.362;7.370;2023-10-13T05:05:26;0.00;;;0.00;;
12884;SDS011;6510;51.362;7.370;2023-10-13T05:08:12;0.10;;;0.10;;
12884;SDS011;6510;51.362;7.370;2023-10-13T05:10:56;0.03;;;0.03;;
12884;SDS011;6510;51.362;7.370;2023-10-13T05:13:40;0.10;;;0.10;;
12884;SDS011;6510;51.362;7.370;2023-10-13T05:16:24;0.00;;;0.00;;
12884;SDS011;6510;51.362;7.370;2023-10-13T05:19:08;0.00;;;0.00;;
12884;SDS011;6510;51.362;7.370;2023-10-13T05:21:52;0.00;;;0.00;;
12884;SDS011;6510;51.362;7.370;2023-10-13T05:24:37;0.00;;;0.00;;
12884;SDS011;6510;51.362;7.370;2023-10-13T05:27:21;0.03;;;0.03;;
12884;SDS011;6510;51.362;7.370;2023-10-13T05:30:05;0.00;;;0.00;;
12884;SDS011;6510;51.362;7.370;2023-10-13T05:32:49;0.00;;;0.00;;
12884;SDS011;6510;51.362;7.370;2023-10-13T05:35:33;0.00;;;0.00;;
12884;SDS011;6510;51.362;7.370;2023-10-13T05:38:17;0.00;;;0.00;;
12884;SDS011;6510;51.362;7.370;2023-10-13T05:41:02;0.00;;;0.00;;
12884;SDS011;6510;51.362;7.370;2023-10-13T05:43:47;0.00;;;0.00;;
12884;SDS011;6510;51.362;7.370;2023-10-13T05:46:32;0.00;;;0.00;;
12884;SDS011;6510;51.362;7.370;2023-10-13T05:49:14;0.00;;;0.00;;
12884;SDS011;6510;51.362;7.370;2023-10-13T05:51:43;0.00;;;0.00;;
12884;SDS011;6510;51.362;7.370;2023-10-13T05:54:22;0.00;;;0.00;;
12884;SDS011;6510;51.362;7.370;2023-10-13T05:57:07;0.00;;;0.00;;
12884;SDS011;6510;51.362;7.370;2023-10-13T05:59:58;0.00;;;0.00;;
12884;SDS011;6510;51.362;7.370;2023-10-13T06:02:42;0.00;;;0.00;;
12884;SDS011;6510;51.362;7.370;2023-10-13T06:05:27;0.00;;;0.00;;
12884;SDS011;6510;51.362;7.370;2023-10-13T06:08:11;0.00;;;0.00;;
12884;SDS011;6510;51.362;7.370;2023-10-13T06:11:01;0.00;;;0.00;;
12884;SDS011;6510;51.362;7.370;2023-10-13T06:13:46;0.00;;;0.00;;
12884;SDS011;6510;51.362;7.370;2023-10-13T06:16:31;0.00;;;0.00;;
12884;SDS011;6510;51.362;7.370;2023-10-13T06:19:15;0.00;;;0.00;;
12884;SDS011;6510;51.362;7.370;2023-10-13T06:21:59;0.00;;;0.00;;
12884;SDS011;6510;51.362;7.370;2023-10-13T06:24:43;0.00;;;0.00;;
12884;SDS011;6510;51.362;7.370;2023-10-13T06:27:28;0.00;;;0.00;;
12884;SDS011;6510;51.362;7.370;2023-10-13T06:30:12;0.00;;;0.00;;
12884;SDS011;6510;51.362;7.370;2023-10-13T06:32:38;0.00;;;0.00;;
12884;SDS011;6510;51.362;7.370;2023-10-13T06:35:06;0.00;;;0.00;;
12884;SDS011;6510;51.362;7.370;2023-10-13T06:37:32;0.00;;;0.00;;
12884;SDS011;6510;51.362;7.370;2023-10-13T06:40:09;0.00;;;0.00;;
12884;SDS011;6510;51.362;7.370;2023-10-13T06:42:51;0.00;;;0.00;;
12884;SDS011;6510;51.362;7.370;2023-10-13T06:45:19;0.10;;;0.10;;
12884;SDS011;6510;51.362;7.370;2023-10-13T06:47:46;0.00;;;0.00;;
12884;SDS011;6510;51.362;7.370;2023-10-13T06:50:14;0.00;;;0.00;;
12884;SDS011;6510;51.362;7.370;2023-10-13T06:52:44;0.10;;;0.10;;
12884;SDS011;6510;51.362;7.370;2023-10-13T06:55:10;0.00;;;0.00;;
12884;SDS011;6510;51.362;7.370;2023-10-13T06:57:42;0.00;;;0.00;;
12884;SDS011;6510;51.362;7.370;2023-10-13T07:00:09;0.00;;;0.00;;
12884;SDS011;6510;51.362;7.370;2023-10-13T07:02:45;0.00;;;0.00;;
12884;SDS011;6510;51.362;7.370;2023-10-13T07:05:11;0.00;;;0.00;;
12884;SDS011;6510;51.362;7.370;2023-10-13T07:07:39;0.00;;;0.00;;
12884;SDS011;6510;51.362;7.370;2023-10-13T07:10:09;0.00;;;0.00;;
12884;SDS011;6510;51.362;7.370;2023-10-13T07:12:36;0.03;;;0.03;;
12884;SDS011;6510;51.362;7.370;2023-10-13T07:15:03;0.00;;;0.00;;
12884;SDS011;6510;51.362;7.370;2023-10-13T07:17:41;0.00;;;0.00;;
12884;SDS011;6510;51.362;7.370;2023-10-13T07:20:09;0.00;;;0.00;;
12884;SDS011;6510;51.362;7.370;2023-10-13T07:22:58;0.10;;;0.10;;
12884;SDS011;6510;51.362;7.370;2023-10-13T07:25:34;0.00;;;0.00;;
12884;SDS011;6510;51.362;7.370;2023-10-13T07:28:06;0.10;;;0.10;;
12884;SDS011;6510;51.362;7.370;2023-10-13T07:30:34;0.00;;;0.00;;
12884;SDS011;6510;51.362;7.370;2023-10-13T07:33:26;0.10;;;0.10;;
12884;SDS011;6510;51.362;7.370;2023-10-13T07:38:36;0.00;;;0.00;;
12884;SDS011;6510;51.362;7.370;2023-10-13T07:41:07;0.10;;;0.10;;
12884;SDS011;6510;51.362;7.370;2023-10-13T07:43:33;0.00;;;0.00;;
12884;SDS011;6510;51.362;7.370;2023-10-13T07:45:59;0.10;;;0.10;;
12884;SDS011;6510;51.362;7.370;2023-10-13T07:48:25;0.00;;;0.00;;
12884;SDS011;6510;51.362;7.370;2023-10-13T07:51:07;0.00;;;0.00;;
12884;SDS011;6510;51.362;7.370;2023-10-13T07:53:42;0.10;;;0.10;;
12884;SDS011;6510;51.362;7.370;2023-10-13T07:56:14;0.00;;;0.00;;
12884;SDS011;6510;51.362;7.370;2023-10-13T07:58:43;0.00;;;0.00;;
12884;SDS011;6510;51.362;7.370;2023-10-13T08:01:31;0.10;;;0.10;;
12884;SDS011;6510;51.362;7.370;2023-10-13T08:03:57;0.03;;;0.03;;
12884;SDS011;6510;51.362;7.370;2023-10-13T08:06:39;0.00;;;0.00;;
12884;SDS011;6510;51.362;7.370;2023-10-13T08:09:06;0.00;;;0.00;;
12884;SDS011;6510;51.362;7.370;2023-10-13T08:11:33;0.10;;;0.10;;
12884;SDS011;6510;51.362;7.370;2023-10-13T08:14:02;0.00;;;0.00;;
12884;SDS011;6510;51.362;7.370;2023-10-13T08:16:49;0.00;;;0.00;;
12884;SDS011;6510;51.362;7.370;2023-10-13T08:19:19;0.10;;;0.10;;
12884;SDS011;6510;51.362;7.370;2023-10-13T08:21:45;0.00;;;0.00;;
12884;SDS011;6510;51.362;7.370;2023-10-13T08:24:22;0.00;;;0.00;;
12884;SDS011;6510;51.362;7.370;2023-10-13T08:27:04;0.10;;;0.10;;
12884;SDS011;6510;51.362;7.370;2023-10-13T08:29:43;0.00;;;0.00;;
12884;SDS011;6510;51.362;7.370;2023-10-13T08:32:16;0.10;;;0.10;;
12884;SDS011;6510;51.362;7.370;2023-10-13T08:34:54;0.10;;;0.10;;
12884;SDS011;6510;51.362;7.370;2023-10-13T08:37:21;0.00;;;0.00;;
12884;SDS011;6510;51.362;7.370;2023-10-13T08:39:56;0.00;;;0.00;;
12884;SDS011;6510;51.362;7.370;2023-10-13T08:42:35;0.00;;;0.00;;
12884;SDS011;6510;51.362;7.370;2023-10-13T08:45:07;0.00;;;0.00;;
12884;SDS011;6510;51.362;7.370;2023-10-13T08:47:53;0.00;;;0.00;;
12884;SDS011;6510;51.362;7.370;2023-10-13T08:50:33;0.10;;;0.10;;
12884;SDS011;6510;51.362;7.370;2023-10-13T08:58:39;0.10;;;0.10;;
12884;SDS011;6510;51.362;7.370;2023-10-13T09:01:18;0.10;;;0.10;;
12884;SDS011;6510;51.362;7.370;2023-10-13T09:06:54;0.10;;;0.10;;
12884;SDS011;6510;51.362;7.370;2023-10-13T09:09:24;0.10;;;0.10;;
12884;SDS011;6510;51.362;7.370;2023-10-13T09:12:02;0.00;;;0.00;;
12884;SDS011;6510;51.362;7.370;2023-10-13T09:14:42;0.10;;;0.10;;
12884;SDS011;6510;51.362;7.370;2023-10-13T09:17:21;0.10;;;0.10;;
12884;SDS011;6510;51.362;7.370;2023-10-13T09:20:04;0.10;;;0.10;;
12884;SDS011;6510;51.362;7.370;2023-10-13T09:22:52;0.10;;;0.10;;
12884;SDS011;6510;51.362;7.370;2023-10-13T09:25:26;0.10;;;0.10;;
12884;SDS011;6510;51.362;7.370;2023-10-13T09:27:59;0.10;;;0.10;;
12884;SDS011;6510;51.362;7.370;2023-10-13T09:30:28;0.10;;;0.10;;
12884;SDS011;6510;51.362;7.370;2023-10-13T09:33:02;0.10;;;0.10;;
12884;SDS011;6510;51.362;7.370;2023-10-13T09:35:40;0.03;;;0.03;;
12884;SDS011;6510;51.362;7.370;2023-10-13T09:38:19;0.08;;;0.08;;
12884;SDS011;6510;51.362;7.370;2023-10-13T09:40:45;0.10;;;0.10;;
12884;SDS011;6510;51.362;7.370;2023-10-13T09:43:15;0.10;;;0.10;;
12884;SDS011;6510;51.362;7.370;2023-10-13T09:45:43;0.10;;;0.10;;
12884;SDS011;6510;51.362;7.370;2023-10-13T09:48:36;0.10;;;0.10;;
12884;SDS011;6510;51.362;7.370;2023-10-13T09:51:16;0.10;;;0.10;;
12884;SDS011;6510;51.362;7.370;2023-10-13T09:57:24;0.10;;;0.10;;
12884;SDS011;6510;51.362;7.370;2023-10-13T09:59:50;0.13;;;0.13;;
12884;SDS011;6510;51.362;7.370;2023-10-13T10:02:21;0.10;;;0.10;;
12884;SDS011;6510;51.362;7.370;2023-10-13T10:04:56;0.10;;;0.10;;
12884;SDS011;6510;51.362;7.370;2023-10-13T10:07:45;0.10;;;0.10;;
12884;SDS011;6510;51.362;7.370;2023-10-13T10:10:21;0.10;;;0.10;;
12884;SDS011;6510;51.362;7.370;2023-10-13T10:13:01;0.10;;;0.10;;
12884;SDS011;6510;51.362;7.370;2023-10-13T10:15:43;0.20;;;0.20;;
12884;SDS011;6510;51.362;7.370;2023-10-13T10:18:18;0.10;;;0.10;;
12884;SDS011;6510;51.362;7.370;2023-10-13T10:20:47;0.10;;;0.10;;
12884;SDS011;6510;51.362;7.370;2023-10-13T10:23:29;0.20;;;0.20;;
12884;SDS011;6510;51.362;7.370;2023-10-13T10:26:09;0.20;;;0.20;;
12884;SDS011;6510;51.362;7.370;2023-10-13T10:28:39;0.10;;;0.10;;
12884;SDS011;6510;51.362;7.370;2023-10-13T10:31:10;0.20;;;0.20;;
12884;SDS011;6510;51.362;7.370;2023-10-13T10:33:42;0.15;;;0.15;;
12884;SDS011;6510;51.362;7.370;2023-10-13T10:36:08;0.10;;;0.10;;
12884;SDS011;6510;51.362;7.370;2023-10-13T10:38:51;0.10;;;0.10;;
12884;SDS011;6510;51.362;7.370;2023-10-13T10:41:24;0.20;;;0.20;;
12884;SDS011;6510;51.362;7.370;2023-10-13T10:43:55;0.20;;;0.20;;
12884;SDS011;6510;51.362;7.370;2023-10-13T10:46:27;0.20;;;0.20;;
12884;SDS011;6510;51.362;7.370;2023-10-13T10:48:57;0.20;;;0.20;;
12884;SDS011;6510;51.362;7.370;2023-10-13T10:51:26;0.10;;;0.10;;
12884;SDS011;6510;51.362;7.370;2023-10-13T10:53:57;0.10;;;0.10;;
12884;SDS011;6510;51.362;7.370;2023-10-13T10:56:36;0.10;;;0.10;;
12884;SDS011;6510;51.362;7.370;2023-10-13T10:59:02;0.20;;;0.20;;
12884;SDS011;6510;51.362;7.370;2023-10-13T11:01:29;0.20;;;0.20;;
12884;SDS011;6510;51.362;7.370;2023-10-13T11:04:04;0.20;;;0.20;;
12884;SDS011;6510;51.362;7.370;2023-10-13T11:06:49;0.20;;;0.20;;
12884;SDS011;6510;51.362;7.370;2023-10-13T11:09:27;0.10;;;0.10;;
12884;SDS011;6510;51.362;7.370;2023-10-13T11:12:09;0.20;;;0.20;;
12884;SDS011;6510;51.362;7.370;2023-10-13T11:14:45;0.13;;;0.13;;
12884;SDS011;6510;51.362;7.370;2023-10-13T11:17:22;0.20;;;0.20;;
12884;SDS011;6510;51.362;7.370;2023-10-13T11:20:11;0.20;;;0.20;;
12884;SDS011;6510;51.362;7.370;2023-10-13T11:22:41;0.15;;;0.15;;
12884;SDS011;6510;51.362;7.370;2023-10-13T11:25:19;0.10;;;0.10;;
12884;SDS011;6510;51.362;7.370;2023-10-13T11:27:47;0.10;;;0.10;;
12884;SDS011;6510;51.362;7.370;2023-10-13T11:30:13;0.10;;;0.10;;
12884;SDS011;6510;51.362;7.370;2023-10-13T11:35:31;0.20;;;0.20;;
12884;SDS011;6510;51.362;7.370;2023-10-13T11:38:16;0.10;;;0.10;;
12884;SDS011;6510;51.362;7.370;2023-10-13T11:40:51;0.10;;;0.10;;
12884;SDS011;6510;51.362;7.370;2023-10-13T11:43:30;0.10;;;0.10;;
12884;SDS011;6510;51.362;7.370;2023-10-13T11:46:00;0.00;;;0.00;;
12884;SDS011;6510;51.362;7.370;2023-10-13T11:48:35;0.10;;;0.10;;
12884;SDS011;6510;51.362;7.370;2023-10-13T11:51:02;0.10;;;0.10;;
12884;SDS011;6510;51.362;7.370;2023-10-13T11:53:37;0.10;;;0.10;;
12884;SDS011;6510;51.362;7.370;2023-10-13T11:56:08;0.10;;;0.10;;
12884;SDS011;6510;51.362;7.370;2023-10-13T11:58:35;0.00;;;0.00;;
12884;SDS011;6510;51.362;7.370;2023-10-13T12:01:04;0.10;;;0.10;;
12884;SDS011;6510;51.362;7.370;2023-10-13T12:06:29;0.20;;;0.20;;
12884;SDS011;6510;51.362;7.370;2023-10-13T12:09:05;0.20;;;0.20;;
12884;SDS011;6510;51.362;7.370;2023-10-13T12:11:48;0.20;;;0.20;;
12884;SDS011;6510;51.362;7.370;2023-10-13T12:14:19;0.20;;;0.20;;
12884;SDS011;6510;51.362;7.370;2023-10-13T12:17:05;0.20;;;0.20;;
12884;SDS011;6510;51.362;7.370;2023-10-13T12:19:35;0.20;;;0.20;;
12884;SDS011;6510;51.362;7.370;2023-10-13T12:22:04;0.20;;;0.20;;
12884;SDS011;6510;51.362;7.370;2023-10-13T12:24:33;0.20;;;0.20;;
12884;SDS011;6510;51.362;7.370;2023-10-13T12:27:02;0.20;;;0.20;;
12884;SDS011;6510;51.362;7.370;2023-10-13T12:29:43;0.10;;;0.10;;
12884;SDS011;6510;51.362;7.370;2023-10-13T12:32:21;0.20;;;0.20;;
12884;SDS011;6510;51.362;7.370;2023-10-13T12:34:49;0.20;;;0.20;;
12884;SDS011;6510;51.362;7.370;2023-10-13T12:37:28;0.20;;;0.20;;
12884;SDS011;6510;51.362;7.370;2023-10-13T12:40:18;0.10;;;0.10;;
12884;SDS011;6510;51.362;7.370;2023-10-13T12:43:03;0.10;;;0.10;;
12884;SDS011;6510;51.362;7.370;2023-10-13T12:45:48;0.10;;;0.10;;
12884;SDS011;6510;51.362;7.370;2023-10-13T12:48:34;0.10;;;0.10;;
12884;SDS011;6510;51.362;7.370;2023-10-13T12:51:20;0.10;;;0.10;;
12884;SDS011;6510;51.362;7.370;2023-10-13T12:53:58;0.20;;;0.20;;
12884;SDS011;6510;51.362;7.370;2023-10-13T12:56:48;0.17;;;0.17;;
12884;SDS011;6510;51.362;7.370;2023-10-13T12:59:13;0.15;;;0.15;;
12884;SDS011;6510;51.362;7.370;2023-10-13T13:01:39;0.10;;;0.10;;
12884;SDS011;6510;51.362;7.370;2023-10-13T13:04:11;0.10;;;0.10;;
12884;SDS011;6510;51.362;7.370;2023-10-13T13:06:45;0.10;;;0.10;;
12884;SDS011;6510;51.362;7.370;2023-10-13T13:09:11;0.20;;;0.20;;
12884;SDS011;6510;51.362;7.370;2023-10-13T13:11:37;0.20;;;0.20;;
12884;SDS011;6510;51.362;7.370;2023-10-13T13:14:08;0.10;;;0.10;;
12884;SDS011;6510;51.362;7.370;2023-10-13T13:16:34;0.10;;;0.10;;
12884;SDS011;6510;51.362;7.370;2023-10-13T13:19:01;0.20;;;0.20;;
12884;SDS011;6510;51.362;7.370;2023-10-13T13:21:37;0.10;;;0.10;;
12884;SDS011;6510;51.362;7.370;2023-10-13T13:24:03;0.10;;;0.10;;
12884;SDS011;6510;51.362;7.370;2023-10-13T13:26:35;0.20;;;0.20;;
12884;SDS011;6510;51.362;7.370;2023-10-13T13:29:05;0.10;;;0.10;;
12884;SDS011;6510;51.362;7.370;2023-10-13T13:31:34;0.10;;;0.10;;
12884;SDS011;6510;51.362;7.370;2023-10-13T13:34:06;0.10;;;0.10;;
12884;SDS011;6510;51.362;7.370;2023-10-13T13:36:34;0.20;;;0.20;;
12884;SDS011;6510;51.362;7.370;2023-10-13T13:39:00;0.10;;;0.10;;
12884;SDS011;6510;51.362;7.370;2023-10-13T13:41:26;0.10;;;0.10;;
12884;SDS011;6510;51.362;7.370;2023-10-13T13:43:52;0.03;;;0.03;;
12884;SDS011;6510;51.362;7.370;2023-10-13T13:46:22;0.10;;;0.10;;
12884;SDS011;6510;51.362;7.370;2023-10-13T13:48:50;0.10;;;0.10;;
12884;SDS011;6510;51.362;7.370;2023-10-13T13:51:16;0.20;;;0.20;;
12884;SDS011;6510;51.362;7.370;2023-10-13T13:53:51;0.10;;;0.10;;
12884;SDS011;6510;51.362;7.370;2023-10-13T13:56:18;0.10;;;0.10;;
12884;SDS011;6510;51.362;7.370;2023-10-13T13:58:48;0.10;;;0.10;;
12884;SDS011;6510;51.362;7.370;2023-10-13T14:01:18;0.20;;;0.20;;
12884;SDS011;6510;51.362;7.370;2023-10-13T14:03:45;0.10;;;0.10;;
12884;SDS011;6510;51.362;7.370;2023-10-13T14:06:12;0.08;;;0.08;;
12884;SDS011;6510;51.362;7.370;2023-10-13T14:08:48;0.10;;;0.10;;
12884;SDS011;6510;51.362;7.370;2023-10-13T14:11:16;0.10;;;0.10;;
12884;SDS011;6510;51.362;7.370;2023-10-13T14:14:01;0.08;;;0.08;;
12884;SDS011;6510;51.362;7.370;2023-10-13T14:16:29;0.10;;;0.10;;
12884;SDS011;6510;51.362;7.370;2023-10-13T14:18:58;0.20;;;0.20;;
12884;SDS011;6510;51.362;7.370;2023-10-13T14:21:26;0.20;;;0.20;;
12884;SDS011;6510;51.362;7.370;2023-10-13T14:23:52;0.20;;;0.20;;
12884;SDS011;6510;51.362;7.370;2023-10-13T14:26:19;0.10;;;0.10;;
12884;SDS011;6510;51.362;7.370;2023-10-13T14:28:51;0.10;;;0.10;;
12884;SDS011;6510;51.362;7.370;2023-10-13T14:31:27;0.10;;;0.10;;
12884;SDS011;6510;51.362;7.370;2023-10-13T14:33:53;0.10;;;0.10;;
12884;SDS011;6510;51.362;7.370;2023-10-13T14:36:18;0.10;;;0.10;;
12884;SDS011;6510;51.362;7.370;2023-10-13T14:38:47;0.10;;;0.10;;
12884;SDS011;6510;51.362;7.370;2023-10-13T14:41:16;0.10;;;0.10;;
12884;SDS011;6510;51.362;7.370;2023-10-13T14:43:43;0.10;;;0.10;;
12884;SDS011;6510;51.362;7.370;2023-10-13T14:46:13;0.20;;;0.20;;
12884;SDS011;6510;51.362;7.370;2023-10-13T14:48:40;0.10;;;0.10;;
12884;SDS011;6510;51.362;7.370;2023-10-13T14:51:09;0.10;;;0.10;;
12884;SDS011;6510;51.362;7.370;2023-10-13T14:53:47;0.10;;;0.10;;
12884;SDS011;6510;51.362;7.370;2023-10-13T14:56:14;0.10;;;0.10;;
12884;SDS011;6510;51.362;7.370;2023-10-13T14:58:41;0.10;;;0.10;;
12884;SDS011;6510;51.362;7.370;2023-10-13T15:01:10;0.13;;;0.13;;
12884;SDS011;6510;51.362;7.370;2023-10-13T15:03:40;0.20;;;0.20;;
12884;SDS011;6510;51.362;7.370;2023-10-13T15:06:22;0.13;;;0.13;;
12884;SDS011;6510;51.362;7.370;2023-10-13T15:08:58;0.10;;;0.10;;
12884;SDS011;6510;51.362;7.370;2023-10-13T15:11:25;0.13;;;0.13;;
12884;SDS011;6510;51.362;7.370;2023-10-13T15:13:52;0.10;;;0.10;;
12884;SDS011;6510;51.362;7.370;2023-10-13T15:16:22;0.10;;;0.10;;
12884;SDS011;6510;51.362;7.370;2023-10-13T15:18:50;0.10;;;0.10;;
12884;SDS011;6510;51.362;7.370;2023-10-13T15:21:24;0.10;;;0.10;;
12884;SDS011;6510;51.362;7.370;2023-10-13T15:24:03;0.10;;;0.10;;
12884;SDS011;6510;51.362;7.370;2023-10-13T15:26:38;0.10;;;0.10;;
12884;SDS011;6510;51.362;7.370;2023-10-13T15:29:12;0.20;;;0.20;;
12884;SDS011;6510;51.362;7.370;2023-10-13T15:31:44;0.20;;;0.20;;
12884;SDS011;6510;51.362;7.370;2023-10-13T15:34:25;0.10;;;0.10;;
12884;SDS011;6510;51.362;7.370;2023-10-13T15:36:52;0.10;;;0.10;;
12884;SDS011;6510;51.362;7.370;2023-10-13T15:39:20;0.10;;;0.10;;
12884;SDS011;6510;51.362;7.370;2023-10-13T15:41:49;0.10;;;0.10;;
12884;SDS011;6510;51.362;7.370;2023-10-13T15:44:19;0.10;;;0.10;;
12884;SDS011;6510;51.362;7.370;2023-10-13T15:46:47;0.00;;;0.00;;
12884;SDS011;6510;51.362;7.370;2023-10-13T15:49:14;0.10;;;0.10;;
12884;SDS011;6510;51.362;7.370;2023-10-13T15:51:40;0.10;;;0.10;;
12884;SDS011;6510;51.362;7.370;2023-10-13T15:54:07;0.15;;;0.15;;
12884;SDS011;6510;51.362;7.370;2023-10-13T15:56:40;0.10;;;0.10;;
12884;SDS011;6510;51.362;7.370;2023-10-13T15:59:08;0.10;;;0.10;;
12884;SDS011;6510;51.362;7.370;2023-10-13T16:01:37;0.10;;;0.10;;